Time;durP1;ratioP1;P1;durP2;ratioP2;P2;SDS_P1;SDS_P2;PMS_P1;PMS_P2;Temp;Humidity;BMP_temperature;BMP_pressure;BME280_temperature;BME280_humidity;BME280_pressure;Samples;Min_cycle;Max_cycle;Signal;HPM_P1;HPM_P2
2023/07/10 00:00:04;;;;;;;7.33;4.27;;;;;;;26.23;64.12;100481.25;5017002;28;20439;-60
2023/07/10 00:02:30;;;;;;;7.47;4.83;;;;;;;26.23;63.52;100474.63;5027537;28;20708;-61
2023/07/10 00:04:55;;;;;;;7.07;3.97;;;;;;;26.21;64.02;100483.75;5029810;28;20454;-61
2023/07/10 00:07:21;;;;;;;8.20;4.30;;;;;;;26.22;64.05;100482.50;5026923;28;20187;-61
2023/07/10 00:09:46;;;;;;;7.13;4.40;;;;;;;26.23;64.03;100477.53;5034046;28;20186;-62
2023/07/10 00:12:13;;;;;;;5.90;4.23;;;;;;;26.22;63.56;100462.25;5028368;28;20171;-61
2023/07/10 00:14:39;;;;;;;7.70;4.80;;;;;;;26.22;63.63;100456.47;5028528;28;20260;-61
2023/07/10 00:17:05;;;;;;;6.03;4.30;;;;;;;26.22;64.09;100467.19;5028194;28;20461;-60
2023/07/10 00:19:30;;;;;;;6.90;4.43;;;;;;;26.21;63.64;100457.72;5027883;28;20612;-61
2023/07/10 00:21:56;;;;;;;6.90;5.00;;;;;;;26.22;63.66;100458.50;5038645;28;20433;-61
2023/07/10 00:24:22;;;;;;;10.30;4.73;;;;;;;26.21;63.95;100449.03;5026776;28;20176;-61
2023/07/10 00:26:47;;;;;;;6.53;3.93;;;;;;;26.21;64.00;100445.31;5047825;28;20584;-62
2023/07/10 00:29:15;;;;;;;7.13;4.60;;;;;;;26.21;63.55;100451.91;5047986;28;20643;-60
2023/07/10 00:31:41;;;;;;;6.00;4.33;;;;;;;26.21;63.91;100459.78;5034361;28;20629;-60
2023/07/10 00:34:17;;;;;;;15.10;4.67;;;;;;;26.21;63.28;100466.41;5030527;28;20485;-61
2023/07/10 00:36:43;;;;;;;7.10;4.50;;;;;;;26.21;63.80;100483.75;5027547;28;20315;-61
2023/07/10 00:39:20;;;;;;;7.63;4.93;;;;;;;26.21;63.38;100485.81;5011175;28;20446;-61
2023/07/10 00:41:49;;;;;;;8.20;4.33;;;;;;;26.20;63.61;100493.69;5039863;28;20441;-61
2023/07/10 00:44:14;;;;;;;6.73;3.87;;;;;;;26.20;63.29;100516.03;5028687;28;20434;-62
2023/07/10 00:46:53;;;;;;;5.73;4.13;;;;;;;26.20;63.78;100513.94;5048472;28;20417;-61
2023/07/10 00:49:37;;;;;;;6.13;4.43;;;;;;;26.20;63.31;100522.63;5013048;28;20234;-60
2023/07/10 00:52:07;;;;;;;7.10;4.70;;;;;;;26.19;63.76;100520.97;5047625;28;20501;-61
2023/07/10 00:54:35;;;;;;;6.37;4.20;;;;;;;26.19;63.27;100512.31;5030216;28;20458;-60
2023/07/10 00:57:02;;;;;;;11.40;4.80;;;;;;;26.20;63.68;100519.72;5029510;28;20796;-61
2023/07/10 00:59:28;;;;;;;8.97;5.20;;;;;;;26.20;63.71;100551.56;5030727;28;20438;-61
2023/07/10 01:02:11;;;;;;;8.40;4.43;;;;;;;26.19;63.31;100549.94;5035829;28;20432;-60
2023/07/10 01:04:39;;;;;;;7.63;4.80;;;;;;;26.20;63.66;100551.56;5047370;28;20550;-61
2023/07/10 01:07:06;;;;;;;9.20;4.20;;;;;;;26.19;62.98;100554.91;5030650;28;20947;-61
2023/07/10 01:09:31;;;;;;;5.33;3.87;;;;;;;26.18;63.50;100551.19;5045169;28;20429;-60
2023/07/10 01:11:57;;;;;;;8.87;4.33;;;;;;;26.19;63.02;100561.50;5048414;28;20409;-63
2023/07/10 01:14:22;;;;;;;5.80;3.67;;;;;;;26.18;63.61;100565.66;5064723;28;20234;-60
2023/07/10 01:16:48;;;;;;;7.67;4.40;;;;;;;26.19;63.46;100578.06;5048452;28;20183;-61
2023/07/10 01:19:19;;;;;;;6.67;4.07;;;;;;;26.19;63.40;100575.19;5031027;28;20801;-61
2023/07/10 01:21:44;;;;;;;7.00;4.13;;;;;;;26.19;63.17;100575.19;5031007;28;20521;-61
2023/07/10 01:24:10;;;;;;;5.73;4.03;;;;;;;26.18;63.08;100565.66;5068331;28;20416;-62
2023/07/10 01:26:36;;;;;;;7.00;4.27;;;;;;;26.18;63.47;100561.94;5062841;28;20194;-61
2023/07/10 01:29:01;;;;;;;7.83;4.97;;;;;;;26.17;62.87;100566.91;5048444;28;20503;-60
2023/07/10 01:31:27;;;;;;;7.57;4.63;;;;;;;26.18;63.03;100559.88;5015072;28;20498;-61
2023/07/10 01:33:53;;;;;;;6.67;4.60;;;;;;;26.18;63.17;100547.44;5030897;28;20190;-62
2023/07/10 01:36:21;;;;;;;4.93;3.63;;;;;;;26.17;63.43;100549.53;5031145;28;20211;-61
2023/07/10 01:38:48;;;;;;;5.93;4.10;;;;;;;26.18;63.56;100551.19;5036116;28;20465;-61
2023/07/10 01:41:31;;;;;;;9.43;4.73;;;;;;;26.18;63.16;100564.81;5051878;28;20429;-61
2023/07/10 01:43:57;;;;;;;6.33;4.00;;;;;;;26.17;63.45;100561.13;5065237;28;20527;-61
2023/07/10 01:46:24;;;;;;;5.93;4.10;;;;;;;26.16;63.80;100559.47;5049259;28;21047;-61
2023/07/10 01:48:53;;;;;;;5.60;3.67;;;;;;;26.17;63.25;100554.50;5049625;28;20262;-62
2023/07/10 01:51:19;;;;;;;6.73;4.33;;;;;;;26.17;63.36;100558.22;5033645;28;20441;-61
2023/07/10 01:53:45;;;;;;;6.47;4.43;;;;;;;26.17;63.20;100554.50;5017513;28;20438;-63
2023/07/10 01:56:10;;;;;;;6.20;4.20;;;;;;;26.17;63.20;100564.03;5066173;28;21081;-61
2023/07/10 01:58:35;;;;;;;6.90;4.20;;;;;;;26.17;63.05;100563.19;5040522;28;20551;-61
2023/07/10 02:01:01;;;;;;;5.00;3.47;;;;;;;26.17;63.01;100564.03;5049609;28;20168;-61
2023/07/10 02:03:26;;;;;;;5.60;4.10;;;;;;;26.18;63.28;100576.41;5049468;28;20603;-60
2023/07/10 02:05:52;;;;;;;6.80;4.20;;;;;;;26.17;63.35;100569.81;5050120;28;20611;-61
2023/07/10 02:08:17;;;;;;;6.43;4.07;;;;;;;26.17;63.00;100566.91;5062388;28;20893;-61
2023/07/10 02:10:42;;;;;;;6.53;4.50;;;;;;;26.17;63.05;100545.81;5066344;28;20684;-61
2023/07/10 02:13:08;;;;;;;6.10;3.53;;;;;;;26.17;62.99;100516.88;5070753;28;20234;-60
2023/07/10 02:15:33;;;;;;;8.43;4.17;;;;;;;26.16;63.40;100495.81;5068195;28;20211;-60
2023/07/10 02:17:59;;;;;;;6.17;4.50;;;;;;;26.16;62.97;100475.53;5070453;28;20183;-61
2023/07/10 02:20:24;;;;;;;5.80;4.13;;;;;;;26.16;63.05;100475.53;5071218;28;20167;-60
2023/07/10 02:22:51;;;;;;;5.40;3.87;;;;;;;26.15;63.51;100540.44;5070966;28;20197;-61
2023/07/10 02:25:16;;;;;;;5.07;3.60;;;;;;;26.17;64.04;100600.81;5067260;28;20209;-61
2023/07/10 02:27:42;;;;;;;7.53;4.60;;;;;;;26.17;63.03;100621.06;5071015;28;20784;-60
2023/07/10 02:30:08;;;;;;;8.10;4.50;;;;;;;26.15;63.72;100595.44;5071162;28;20938;-61
2023/07/10 02:32:33;;;;;;;6.60;4.50;;;;;;;26.15;63.49;100580.16;5066918;28;20222;-61
2023/07/10 02:34:59;;;;;;;7.20;4.20;;;;;;;26.15;63.04;100606.22;5070820;28;20453;-61
2023/07/10 02:37:24;;;;;;;8.23;4.40;;;;;;;26.14;63.54;100598.78;5067883;28;20260;-60
2023/07/10 02:39:50;;;;;;;6.63;4.47;;;;;;;26.13;63.48;100592.16;5051990;28;20180;-61
2023/07/10 02:42:15;;;;;;;6.50;4.60;;;;;;;26.14;63.55;100605.38;5049814;28;20168;-60
2023/07/10 02:44:41;;;;;;;9.20;4.90;;;;;;;26.13;63.12;100608.69;5049883;28;20156;-61
2023/07/10 02:47:06;;;;;;;7.80;4.77;;;;;;;26.13;63.05;100606.63;5052068;28;20519;-62
2023/07/10 02:49:32;;;;;;;8.20;4.87;;;;;;;26.13;63.42;100603.75;5051008;28;20548;-61
2023/07/10 02:51:57;;;;;;;5.23;3.57;;;;;;;26.14;63.39;100616.97;5066141;28;20250;-61
2023/07/10 02:54:22;;;;;;;8.17;4.67;;;;;;;26.13;63.41;100624.00;5055442;28;20209;-61
2023/07/10 02:56:48;;;;;;;7.40;4.70;;;;;;;26.14;63.03;100602.50;5069498;28;20218;-61
2023/07/10 02:59:13;;;;;;;6.73;4.27;;;;;;;26.14;62.99;100605.38;5065827;28;20190;-61
2023/07/10 03:01:39;;;;;;;5.57;3.73;;;;;;;26.14;63.20;100607.47;5050996;28;20294;-62
2023/07/10 03:04:05;;;;;;;5.80;4.13;;;;;;;26.15;63.34;100617.78;5069087;28;20191;-61
2023/07/10 03:06:31;;;;;;;7.47;4.63;;;;;;;26.14;62.95;100622.75;5051829;28;20449;-61
2023/07/10 03:08:58;;;;;;;6.07;4.47;;;;;;;26.14;63.51;100625.66;5049600;28;20183;-60
2023/07/10 03:11:23;;;;;;;6.73;4.40;;;;;;;26.13;63.50;100617.38;5050159;28;20171;-60
2023/07/10 03:13:49;;;;;;;5.23;3.97;;;;;;;26.14;62.97;100616.16;5050564;28;20487;-61
2023/07/10 03:16:15;;;;;;;7.20;3.90;;;;;;;26.13;63.46;100618.22;5049552;28;20207;-61
2023/07/10 03:18:40;;;;;;;6.17;4.23;;;;;;;26.14;63.54;100639.31;5030950;28;20635;-62
2023/07/10 03:21:07;;;;;;;8.67;4.90;;;;;;;26.13;62.95;100635.59;5049235;28;20403;-61
2023/07/10 03:23:32;;;;;;;7.13;5.03;;;;;;;26.13;63.25;100617.38;5060980;28;20188;-60
2023/07/10 03:25:58;;;;;;;7.53;4.90;;;;;;;26.13;63.10;100617.38;5068512;28;20466;-60
2023/07/10 03:28:23;;;;;;;6.90;4.80;;;;;;;26.13;63.59;100620.28;5068946;28;20183;-60
2023/07/10 03:30:49;;;;;;;7.30;4.80;;;;;;;26.14;63.21;100642.22;5053931;28;20187;-61
2023/07/10 03:33:15;;;;;;;7.73;4.30;;;;;;;26.13;63.66;100655.84;5049465;28;20167;-61
2023/07/10 03:35:41;;;;;;;7.20;5.03;;;;;;;26.13;63.04;100655.84;5034439;28;20204;-61
2023/07/10 03:38:06;;;;;;;6.90;4.50;;;;;;;26.13;63.75;100658.75;5014089;28;20943;-60
2023/07/10 03:40:32;;;;;;;6.90;4.67;;;;;;;26.13;63.68;100666.59;5066143;28;20482;-61
2023/07/10 03:42:57;;;;;;;6.50;4.33;;;;;;;26.12;63.80;100653.38;5057096;28;20191;-61
2023/07/10 03:45:23;;;;;;;8.03;4.87;;;;;;;26.12;63.62;100633.94;5050893;28;20185;-60
2023/07/10 03:47:48;;;;;;;6.17;4.70;;;;;;;26.12;63.36;100622.38;5047619;28;20192;-61
2023/07/10 03:50:14;;;;;;;8.57;4.60;;;;;;;26.13;63.40;100626.91;5053588;28;20183;-61
2023/07/10 03:52:40;;;;;;;7.30;4.33;;;;;;;26.12;64.00;100625.25;5067307;28;20199;-62
2023/07/10 03:55:05;;;;;;;7.50;5.07;;;;;;;26.13;63.49;100634.75;5066979;28;20465;-62
2023/07/10 03:57:31;;;;;;;8.27;4.93;;;;;;;26.12;64.14;100636.84;5061784;28;20183;-61
2023/07/10 03:59:56;;;;;;;9.90;5.37;;;;;;;26.12;63.57;100639.72;5048374;28;20216;-60
2023/07/10 04:02:22;;;;;;;8.17;5.17;;;;;;;26.11;63.82;100641.00;5058484;28;20179;-60
2023/07/10 04:04:47;;;;;;;8.90;4.93;;;;;;;26.11;63.93;100629.41;5030050;28;20192;-61
2023/07/10 04:07:12;;;;;;;6.80;4.60;;;;;;;26.11;63.90;100609.16;5030851;28;20187;-61
2023/07/10 04:09:38;;;;;;;7.57;4.80;;;;;;;26.12;63.66;100602.09;5062658;28;20183;-61
2023/07/10 04:12:04;;;;;;;8.33;4.43;;;;;;;26.12;63.49;100636.00;5056228;28;20187;-61
2023/07/10 04:14:29;;;;;;;8.03;5.10;;;;;;;26.13;63.62;100655.84;5047357;28;20227;-61
2023/07/10 04:16:55;;;;;;;9.60;5.20;;;;;;;26.13;63.57;100664.53;5053683;28;20186;-60
2023/07/10 04:19:20;;;;;;;8.30;4.47;;;;;;;26.13;64.13;100679.00;5047939;28;20163;-61
2023/07/10 04:21:46;;;;;;;6.07;4.30;;;;;;;26.14;63.90;100674.84;5048499;28;20677;-61
2023/07/10 04:24:12;;;;;;;7.50;4.83;;;;;;;26.13;64.46;100670.31;5064142;28;20524;-61
2023/07/10 04:26:37;;;;;;;5.77;4.60;;;;;;;26.12;63.86;100662.88;5067542;28;20159;-61
2023/07/10 04:29:04;;;;;;;6.70;5.27;;;;;;;26.13;64.42;100670.31;5050130;28;20458;-61
2023/07/10 04:31:30;;;;;;;5.90;4.50;;;;;;;26.13;64.25;100672.38;5066499;28;20202;-61
2023/07/10 04:33:56;;;;;;;8.03;5.17;;;;;;;26.12;64.01;100674.47;5031627;28;20948;-61
2023/07/10 04:36:21;;;;;;;7.67;4.97;;;;;;;26.13;64.32;100678.16;5047379;28;20245;-62
2023/07/10 04:38:47;;;;;;;12.20;4.93;;;;;;;26.13;64.11;100679.00;5057189;28;20183;-61
2023/07/10 04:41:19;;;;;;;12.40;4.57;;;;;;;26.14;63.84;100685.63;5049371;28;20187;-61
2023/07/10 04:43:45;;;;;;;8.50;4.67;;;;;;;26.14;64.23;100682.72;5063765;28;20451;-61
2023/07/10 04:46:11;;;;;;;8.13;4.23;;;;;;;26.13;64.36;100679.00;5047796;28;20402;-60
2023/07/10 04:48:37;;;;;;;8.40;4.63;;;;;;;26.14;63.71;100682.72;5047997;28;20188;-61
2023/07/10 04:51:04;;;;;;;7.17;4.77;;;;;;;26.16;64.34;100694.69;5060119;28;20527;-62
2023/07/10 04:53:30;;;;;;;6.73;4.80;;;;;;;26.15;64.22;100696.75;5067186;28;20264;-61
2023/07/10 04:55:56;;;;;;;7.23;4.73;;;;;;;26.17;63.72;100720.34;5062938;28;20465;-60
2023/07/10 04:58:24;;;;;;;5.67;4.80;;;;;;;26.18;64.15;100716.19;5046935;28;20810;-61
2023/07/10 05:00:54;;;;;;;7.17;5.17;;;;;;;26.18;63.81;100719.06;5049792;28;20215;-61
2023/07/10 05:03:19;;;;;;;5.93;4.50;;;;;;;26.15;64.42;100725.69;5029352;28;20460;-60
2023/07/10 05:05:55;;;;;;;6.33;4.53;;;;;;;26.16;64.21;100726.53;5048257;28;20542;-61
2023/07/10 05:08:21;;;;;;;12.10;4.90;;;;;;;26.14;64.49;100721.16;5062534;28;20190;-60
2023/07/10 05:10:50;;;;;;;6.57;4.17;;;;;;;26.14;64.63;100720.34;5050325;28;20398;-61
2023/07/10 05:13:18;;;;;;;7.27;4.33;;;;;;;26.14;64.80;100732.75;5069622;28;20469;-60
2023/07/10 05:15:45;;;;;;;6.30;4.43;;;;;;;26.14;64.49;100735.63;5069905;28;20448;-60
2023/07/10 05:18:10;;;;;;;7.10;4.47;;;;;;;26.13;64.28;100739.78;5046735;28;20441;-60
2023/07/10 05:20:36;;;;;;;7.97;4.63;;;;;;;26.14;64.93;100737.72;5072042;28;20401;-61
2023/07/10 05:23:01;;;;;;;6.07;4.33;;;;;;;26.13;64.49;100739.78;5070299;28;20175;-61
2023/07/10 05:25:27;;;;;;;11.07;5.57;;;;;;;26.13;64.60;100733.16;5056304;28;20593;-60
2023/07/10 05:27:52;;;;;;;5.70;4.40;;;;;;;26.13;65.08;100742.69;5070005;28;20252;-60
2023/07/10 05:30:17;;;;;;;8.17;5.30;;;;;;;26.18;64.95;100745.13;5062389;28;20183;-62
2023/07/10 05:32:43;;;;;;;5.53;4.10;;;;;;;26.18;64.32;100742.22;5049568;28;20171;-60
2023/07/10 05:35:08;;;;;;;5.93;4.40;;;;;;;26.19;64.54;100745.97;5047269;28;20199;-62
2023/07/10 05:37:34;;;;;;;7.80;4.77;;;;;;;26.16;64.70;100741.84;5065958;28;20210;-61
2023/07/10 05:39:59;;;;;;;9.40;5.67;;;;;;;26.14;65.69;100741.44;5070148;28;20179;-60
2023/07/10 05:42:25;;;;;;;11.10;4.80;;;;;;;26.15;65.58;100745.97;5050298;28;20282;-61
2023/07/10 05:44:50;;;;;;;7.37;5.07;;;;;;;26.14;65.69;100740.63;5070493;28;20167;-60
2023/07/10 05:47:16;;;;;;;9.90;5.00;;;;;;;26.17;64.98;100745.53;5051055;28;20179;-61
2023/07/10 05:49:41;;;;;;;8.83;5.13;;;;;;;26.17;65.38;100743.50;5052570;28;20183;-61
2023/07/10 05:52:07;;;;;;;8.07;5.50;;;;;;;26.17;64.68;100734.81;5035477;28;20176;-61
2023/07/10 05:54:32;;;;;;;8.53;5.07;;;;;;;26.18;64.70;100736.44;5069620;28;20294;-61
2023/07/10 05:56:59;;;;;;;8.70;5.83;;;;;;;26.18;64.53;100735.59;5063855;28;21214;-60
2023/07/10 05:59:25;;;;;;;6.67;5.10;;;;;;;26.19;65.13;100743.88;5050835;28;20180;-61
2023/07/10 06:01:50;;;;;;;7.60;4.83;;;;;;;26.17;64.68;100734.81;5035834;28;20571;-61
2023/07/10 06:04:16;;;;;;;12.07;6.60;;;;;;;26.19;64.91;100738.09;5051238;28;20310;-60
2023/07/10 06:06:41;;;;;;;11.90;6.20;;;;;;;26.20;65.30;100747.59;5051232;28;20180;-60
2023/07/10 06:09:06;;;;;;;9.63;5.40;;;;;;;26.21;64.61;100738.50;5063091;28;20256;-60
2023/07/10 06:11:32;;;;;;;9.27;5.50;;;;;;;26.22;64.88;100745.09;5053372;28;20196;-60
2023/07/10 06:13:58;;;;;;;13.30;5.50;;;;;;;26.23;64.43;100741.78;5057589;28;20727;-60
2023/07/10 06:16:23;;;;;;;8.60;5.33;;;;;;;26.24;64.92;100734.75;5039309;28;20211;-61
2023/07/10 06:18:49;;;;;;;8.40;5.30;;;;;;;26.25;64.99;100739.28;5029363;28;20195;-60
2023/07/10 06:21:14;;;;;;;8.03;5.50;;;;;;;26.25;64.56;100739.28;5048982;28;20187;-60
2023/07/10 06:23:40;;;;;;;7.43;5.13;;;;;;;26.24;65.12;100736.84;5044678;28;20183;-61
2023/07/10 06:26:05;;;;;;;13.87;5.53;;;;;;;26.24;64.68;100739.72;5030027;28;20197;-61
2023/07/10 06:28:32;;;;;;;9.17;5.20;;;;;;;26.22;65.12;100742.22;5012257;28;20176;-62
2023/07/10 06:31:00;;;;;;;9.20;5.57;;;;;;;26.24;65.33;100739.72;5011972;28;20338;-60
2023/07/10 06:33:27;;;;;;;11.60;5.43;;;;;;;26.22;64.98;100745.94;5014748;28;20458;-60
2023/07/10 06:35:52;;;;;;;9.57;5.47;;;;;;;26.21;65.18;100750.09;5030087;28;20949;-60
2023/07/10 06:38:18;;;;;;;9.17;5.03;;;;;;;26.22;65.01;100740.16;5032759;28;20478;-60
2023/07/10 06:40:43;;;;;;;6.97;4.87;;;;;;;26.23;65.43;100738.06;5045295;28;20676;-61
2023/07/10 06:43:09;;;;;;;11.77;5.40;;;;;;;26.23;65.18;100741.78;5049525;28;20195;-61
2023/07/10 06:45:34;;;;;;;7.17;5.03;;;;;;;26.23;65.60;100741.78;5043338;28;20288;-61
2023/07/10 06:48:00;;;;;;;11.07;5.83;;;;;;;26.23;65.15;100738.91;5039988;28;20168;-61
2023/07/10 06:50:25;;;;;;;8.93;5.50;;;;;;;26.24;65.59;100737.63;5056436;28;20179;-60
2023/07/10 06:52:51;;;;;;;13.70;5.80;;;;;;;26.25;65.08;100732.69;5047595;28;20180;-61
2023/07/10 06:55:17;;;;;;;7.50;5.10;;;;;;;26.25;65.51;100733.50;5038119;28;20203;-61
2023/07/10 06:57:42;;;;;;;10.53;5.77;;;;;;;26.26;65.66;100732.28;5032353;28;20188;-60
2023/07/10 07:00:09;;;;;;;11.00;5.93;;;;;;;26.26;65.69;100735.16;5030473;28;20430;-60
2023/07/10 07:02:35;;;;;;;8.97;5.40;;;;;;;26.28;65.87;100743.41;5032195;28;20305;-60
2023/07/10 07:05:01;;;;;;;8.90;5.33;;;;;;;26.28;66.07;100744.25;5030505;28;21104;-60
2023/07/10 07:07:27;;;;;;;14.07;6.00;;;;;;;26.28;65.70;100735.56;5031144;28;20334;-61
2023/07/10 07:09:52;;;;;;;9.97;5.57;;;;;;;26.29;65.99;100751.66;5052791;28;20460;-60
2023/07/10 07:12:18;;;;;;;7.40;5.40;;;;;;;26.29;66.52;100747.97;5042669;28;20417;-61
2023/07/10 07:14:43;;;;;;;8.70;5.50;;;;;;;26.30;66.41;100752.50;5011665;28;20228;-61
2023/07/10 07:17:09;;;;;;;7.93;5.70;;;;;;;26.30;66.84;100762.00;5032867;28;20190;-61
2023/07/10 07:19:34;;;;;;;10.97;6.53;;;;;;;26.30;66.08;100758.31;5022369;28;20189;-61
2023/07/10 07:22:00;;;;;;;12.30;5.90;;;;;;;26.29;66.18;100760.34;5028676;28;20168;-61
2023/07/10 07:24:25;;;;;;;9.03;5.40;;;;;;;26.29;65.83;100771.94;5044286;28;20204;-61
2023/07/10 07:26:51;;;;;;;7.83;5.63;;;;;;;26.30;66.41;100767.78;5048538;28;20434;-61
2023/07/10 07:29:16;;;;;;;10.33;6.70;;;;;;;26.30;65.90;100770.69;5045224;28;20186;-61
2023/07/10 07:31:42;;;;;;;8.80;5.23;;;;;;;26.31;65.96;100783.09;5029238;28;20192;-60
2023/07/10 07:34:07;;;;;;;14.70;6.03;;;;;;;26.31;66.04;100775.25;5029087;28;20242;-61
2023/07/10 07:36:34;;;;;;;12.80;6.57;;;;;;;26.31;67.01;100777.31;5030593;28;20270;-61
2023/07/10 07:39:01;;;;;;;10.30;5.60;;;;;;;26.31;66.54;100786.00;5028648;28;20184;-61
2023/07/10 07:41:27;;;;;;;11.60;5.73;;;;;;;26.31;66.48;100783.94;5028451;28;20419;-61
2023/07/10 07:43:52;;;;;;;9.47;5.70;;;;;;;26.30;66.92;100784.34;5029483;28;21015;-60
2023/07/10 07:46:18;;;;;;;9.73;5.60;;;;;;;26.31;66.46;100786.00;5028259;28;20188;-60
2023/07/10 07:48:43;;;;;;;12.67;6.30;;;;;;;26.32;66.39;100796.31;5042883;28;20176;-62
2023/07/10 07:51:09;;;;;;;9.77;5.80;;;;;;;26.32;66.02;100793.44;5043958;28;20522;-61
2023/07/10 07:53:35;;;;;;;9.10;5.90;;;;;;;26.32;66.45;100790.53;5030448;28;20619;-61
2023/07/10 07:56:00;;;;;;;8.50;6.23;;;;;;;26.31;66.14;100798.41;5043120;28;20265;-60
2023/07/10 07:58:27;;;;;;;8.57;5.93;;;;;;;26.32;66.33;100790.53;5029121;28;20420;-60
2023/07/10 08:00:52;;;;;;;7.43;5.20;;;;;;;26.32;66.20;100791.38;5031937;28;20191;-60
2023/07/10 08:03:18;;;;;;;8.63;5.63;;;;;;;26.31;67.13;100800.47;5037435;28;20599;-61
2023/07/10 08:05:43;;;;;;;8.43;5.40;;;;;;;26.31;66.59;100795.53;5010474;28;20212;-61
2023/07/10 08:08:10;;;;;;;10.50;6.83;;;;;;;26.32;66.60;100797.16;5048828;28;20176;-61
2023/07/10 08:10:41;;;;;;;8.83;6.50;;;;;;;26.33;66.02;100786.38;5039079;28;20246;-61
2023/07/10 08:13:07;;;;;;;10.23;6.10;;;;;;;26.32;66.91;100791.38;5016486;28;20472;-61
2023/07/10 08:15:32;;;;;;;8.80;5.40;;;;;;;26.31;66.19;100798.41;5049531;28;20469;-60
2023/07/10 08:17:57;;;;;;;11.30;6.50;;;;;;;26.31;66.20;100795.53;5067416;28;20262;-61
2023/07/10 08:20:23;;;;;;;7.50;5.20;;;;;;;26.30;66.68;100799.63;5068336;28;20163;-61
2023/07/10 08:22:48;;;;;;;12.70;5.93;;;;;;;26.33;66.90;100797.97;5062200;28;20223;-60
2023/07/10 08:25:14;;;;;;;8.77;6.00;;;;;;;26.32;66.25;100805.84;5068948;28;20621;-61
2023/07/10 08:27:41;;;;;;;8.20;5.87;;;;;;;26.32;66.59;100808.75;5068867;28;20167;-61
2023/07/10 08:30:07;;;;;;;8.67;5.60;;;;;;;26.32;67.02;100808.75;5067888;28;20155;-61
2023/07/10 08:32:32;;;;;;;10.73;5.53;;;;;;;26.33;66.53;100813.28;5051684;28;20442;-61
2023/07/10 08:34:58;;;;;;;11.13;6.90;;;;;;;26.33;66.73;100810.38;5043000;28;20484;-61
2023/07/10 08:37:23;;;;;;;13.93;6.43;;;;;;;26.34;67.22;100806.25;5058336;28;20286;-60
2023/07/10 08:39:49;;;;;;;10.40;6.20;;;;;;;26.35;66.32;100802.09;5064942;28;20182;-61
2023/07/10 08:42:22;;;;;;;9.40;6.07;;;;;;;26.35;67.33;100801.28;5066072;28;20183;-61
2023/07/10 08:44:51;;;;;;;9.13;6.00;;;;;;;26.35;67.38;100795.50;5065003;28;20255;-60
2023/07/10 08:47:47;;;;;;;8.53;6.30;;;;;;;26.35;66.39;100799.19;5069742;28;20427;-61
2023/07/10 08:50:28;;;;;;;14.60;5.63;;;;;;;26.35;66.59;100790.50;5067062;28;20449;-61
2023/07/10 08:53:02;;;;;;;10.03;6.03;;;;;;;26.36;66.96;100800.03;5055231;28;20920;-61
2023/07/10 08:55:45;;;;;;;12.07;6.70;;;;;;;26.36;66.81;100792.19;5045772;28;20461;-60
2023/07/10 08:58:28;;;;;;;12.07;5.60;;;;;;;26.35;67.08;100790.50;5051878;28;20426;-61
2023/07/10 09:00:59;;;;;;;10.23;6.60;;;;;;;26.36;67.65;100797.13;5018093;28;20442;-60
2023/07/10 09:03:47;;;;;;;8.47;6.13;;;;;;;26.36;67.30;100795.06;5051537;28;20433;-60
2023/07/10 09:06:19;;;;;;;9.40;6.20;;;;;;;26.37;67.06;100790.09;5035401;28;20429;-61
2023/07/10 09:08:50;;;;;;;10.40;6.37;;;;;;;26.38;67.59;100795.47;5053692;28;20449;-61
2023/07/10 09:11:16;;;;;;;10.73;6.00;;;;;;;26.39;67.29;100778.94;5056608;28;20464;-60
2023/07/10 09:13:50;;;;;;;10.10;6.93;;;;;;;26.39;67.52;100785.53;5049542;28;20516;-60
2023/07/10 09:16:17;;;;;;;20.00;6.47;;;;;;;26.40;66.91;100797.94;5027955;28;20210;-61
2023/07/10 09:19:16;;;;;;;12.90;6.80;;;;;;;26.42;67.71;100792.53;5034528;28;20445;-62
2023/07/10 09:21:41;;;;;;;15.90;7.23;;;;;;;26.42;68.43;100784.69;5039478;28;20441;-61
2023/07/10 09:24:12;;;;;;;12.67;7.67;;;;;;;26.43;67.31;100785.50;5064263;28;20450;-61
2023/07/10 09:26:39;;;;;;;12.13;7.30;;;;;;;26.44;67.97;100787.19;5064751;28;20294;-61
2023/07/10 09:29:11;;;;;;;13.30;7.70;;;;;;;26.43;68.59;100789.22;5062277;28;20509;-61
2023/07/10 09:31:55;;;;;;;17.23;7.67;;;;;;;26.44;67.70;100782.19;5051001;28;20418;-62
2023/07/10 09:34:22;;;;;;;8.80;6.57;;;;;;;26.44;68.58;100785.09;5050591;28;20477;-61
2023/07/10 09:36:51;;;;;;;10.77;7.03;;;;;;;26.44;68.27;100787.19;5066829;28;21004;-61
2023/07/10 09:39:16;;;;;;;9.20;6.37;;;;;;;26.46;68.35;100779.72;5055788;28;20426;-60
2023/07/10 09:41:42;;;;;;;8.73;6.53;;;;;;;26.46;68.53;100779.72;5033083;28;20486;-60
2023/07/10 09:44:15;;;;;;;11.20;6.67;;;;;;;26.45;68.48;100780.94;5057005;28;20223;-61
2023/07/10 09:46:41;;;;;;;10.10;7.23;;;;;;;26.46;68.55;100776.81;5048880;28;20350;-61
2023/07/10 09:49:18;;;;;;;10.40;7.33;;;;;;;26.46;68.04;100785.50;5065982;28;20433;-60
2023/07/10 09:51:55;;;;;;;11.70;7.57;;;;;;;26.47;68.78;100781.34;5050574;28;20183;-61
2023/07/10 09:54:20;;;;;;;8.70;6.87;;;;;;;26.47;68.43;100778.47;5050496;28;20427;-61
2023/07/10 09:56:47;;;;;;;10.47;7.33;;;;;;;26.49;67.94;100767.25;5055175;28;20801;-61
2023/07/10 09:59:19;;;;;;;10.33;6.90;;;;;;;26.51;68.65;100775.53;5059271;28;20188;-62
2023/07/10 10:01:46;;;;;;;11.87;7.20;;;;;;;26.52;67.81;100771.38;5051439;28;20975;-60
2023/07/10 10:04:11;;;;;;;10.53;7.23;;;;;;;26.50;68.37;100768.91;5049615;28;20465;-60
2023/07/10 10:06:37;;;;;;;11.53;7.20;;;;;;;26.50;68.42;100773.88;5052669;28;20426;-62
2023/07/10 10:09:16;;;;;;;10.50;6.43;;;;;;;26.51;68.45;100770.56;5030962;28;20182;-62
2023/07/10 10:11:45;;;;;;;10.17;6.87;;;;;;;26.52;67.75;100763.53;5027364;28;20187;-61
2023/07/10 10:14:14;;;;;;;10.97;7.63;;;;;;;26.51;67.84;100770.56;5028963;28;20525;-61
2023/07/10 10:16:49;;;;;;;10.40;6.47;;;;;;;26.51;67.69;100764.78;5030053;28;20476;-61
2023/07/10 10:19:28;;;;;;;10.33;6.40;;;;;;;26.51;67.91;100770.56;5069193;28;20436;-62
2023/07/10 10:21:53;;;;;;;15.57;6.97;;;;;;;26.51;66.92;100761.88;5048646;28;20445;-60
2023/07/10 10:24:18;;;;;;;8.37;6.57;;;;;;;26.52;67.51;100766.41;5056417;28;20441;-60
2023/07/10 10:27:23;;;;;;;9.80;6.83;;;;;;;26.51;67.83;100759.00;5049915;28;20175;-60
2023/07/10 10:30:06;;;;;;;12.20;7.43;;;;;;;26.49;67.33;100752.78;5050930;28;20210;-60
2023/07/10 10:32:35;;;;;;;10.17;6.50;;;;;;;26.49;67.02;100763.56;5064081;28;20421;-60
2023/07/10 10:35:28;;;;;;;8.50;6.00;;;;;;;26.48;67.34;100748.25;5063955;28;20470;-60
2023/07/10 10:37:56;;;;;;;12.67;6.73;;;;;;;26.50;67.02;100750.72;5045786;28;20565;-60
2023/07/10 10:40:42;;;;;;;10.93;5.90;;;;;;;26.48;67.28;100754.03;5065873;28;20413;-61
2023/07/10 10:43:55;;;;;;;8.70;6.43;;;;;;;26.50;67.15;100753.63;5030612;28;20449;-60
2023/07/10 10:46:49;;;;;;;8.80;6.60;;;;;;;26.51;67.05;100758.16;5005201;28;20486;-61
2023/07/10 10:49:29;;;;;;;9.07;6.17;;;;;;;26.52;66.60;100742.41;5061779;28;20512;-61
2023/07/10 10:52:17;;;;;;;11.03;7.33;;;;;;;26.51;66.25;100746.56;5064900;28;20483;-62
2023/07/10 10:54:48;;;;;;;9.87;6.77;;;;;;;26.52;66.07;100742.41;5032845;28;20461;-62
2023/07/10 10:57:35;;;;;;;8.17;6.27;;;;;;;26.53;66.39;100741.16;5064244;28;20437;-62
2023/07/10 11:00:41;;;;;;;8.87;6.37;;;;;;;26.51;66.50;100741.59;5046768;28;20422;-61
2023/07/10 11:03:39;;;;;;;8.07;6.00;;;;;;;26.50;66.28;100739.94;5044172;28;20422;-62
2023/07/10 11:06:26;;;;;;;14.53;6.77;;;;;;;26.53;66.24;100735.38;5067314;28;21001;-61
2023/07/10 11:08:52;;;;;;;8.43;5.90;;;;;;;26.53;66.50;100733.31;5057396;28;20445;-61
2023/07/10 11:11:21;;;;;;;10.30;6.67;;;;;;;26.52;65.56;100728.78;5047662;28;20502;-60
2023/07/10 11:13:47;;;;;;;11.03;6.63;;;;;;;26.53;66.25;100738.25;5043548;28;20250;-61
2023/07/10 11:16:12;;;;;;;8.17;6.20;;;;;;;26.52;65.41;100731.66;5040748;28;20468;-61
2023/07/10 11:18:38;;;;;;;9.53;6.40;;;;;;;26.52;64.81;100731.66;5062664;28;20186;-61
2023/07/10 11:21:03;;;;;;;9.93;5.90;;;;;;;26.55;65.34;100721.31;5064563;28;20190;-62
2023/07/10 11:23:41;;;;;;;12.53;6.90;;;;;;;26.53;64.65;100730.41;5054818;28;20184;-62
2023/07/10 11:26:15;;;;;;;10.23;6.43;;;;;;;26.55;64.94;100725.03;5045637;28;20180;-62